Terminal Aerodrome Forecast
Issued by NWS

Home | Current Version | Previous Version | Text Only | Print | Product List | Glossary On
Versions: 1 2 3 4 5 6 7 8 9 10 11 12 13 14 15 16 17 18 19 20 21 22 23 24 25 26 27 28 29 30 31 32 33 34 35 36 37 38 39 40 41 42 43
000
FTUS45 KBOU 192126 AAB
TAFAPA
TAF AMD
KAPA 192126Z 1921/2018 28015G25KT P6SM SCT080 BKN150
      TEMPO 1921/1923 VRB20G35KT -TSRA BKN080CB
     FM192300 06011KT P6SM VCTS SCT080CB BKN120
      TEMPO 1923/2001 VRB20G35KT -TSRA BKN080CB
     FM200100 15011KT P6SM SCT080 BKN120
     FM200700 20010KT P6SM VCSH SCT080 BKN120=

USA.gov is the U.S. government's official web portal to all federal, state and local government web resources and services.